sensor_id;sensor_type;location;lat;lon;timestamp;temperature;humidity
24902;DHT22;31328;51.402;0.016;2022-07-01T00:01:40;12.80;95.60
24902;DHT22;31328;51.402;0.016;2022-07-01T00:04:07;12.80;95.70
24902;DHT22;31328;51.402;0.016;2022-07-01T00:06:34;12.80;95.80
24902;DHT22;31328;51.402;0.016;2022-07-01T00:09:00;12.70;95.80
24902;DHT22;31328;51.402;0.016;2022-07-01T00:11:26;12.70;95.90
24902;DHT22;31328;51.402;0.016;2022-07-01T00:13:53;12.70;95.90
24902;DHT22;31328;51.402;0.016;2022-07-01T00:16:19;12.70;95.90
24902;DHT22;31328;51.402;0.016;2022-07-01T00:18:45;12.70;96.00
24902;DHT22;31328;51.402;0.016;2022-07-01T00:21:12;12.70;96.00
24902;DHT22;31328;51.402;0.016;2022-07-01T00:23:38;12.70;96.00
24902;DHT22;31328;51.402;0.016;2022-07-01T00:26:05;12.70;96.10
24902;DHT22;31328;51.402;0.016;2022-07-01T00:28:31;12.70;96.40
24902;DHT22;31328;51.402;0.016;2022-07-01T00:30:57;12.60;96.10
24902;DHT22;31328;51.402;0.016;2022-07-01T00:33:24;12.60;96.10
24902;DHT22;31328;51.402;0.016;2022-07-01T00:35:50;12.60;96.10
24902;DHT22;31328;51.402;0.016;2022-07-01T00:38:18;12.60;96.20
24902;DHT22;31328;51.402;0.016;2022-07-01T00:40:44;12.60;96.20
24902;DHT22;31328;51.402;0.016;2022-07-01T00:43:10;12.60;96.20
24902;DHT22;31328;51.402;0.016;2022-07-01T00:45:43;12.60;96.20
24902;DHT22;31328;51.402;0.016;2022-07-01T00:48:10;12.60;96.30
24902;DHT22;31328;51.402;0.016;2022-07-01T00:50:37;12.60;96.30
24902;DHT22;31328;51.402;0.016;2022-07-01T00:53:05;12.60;96.30
24902;DHT22;31328;51.402;0.016;2022-07-01T00:55:31;12.60;96.30
24902;DHT22;31328;51.402;0.016;2022-07-01T00:57:58;12.60;96.40
24902;DHT22;31328;51.402;0.016;2022-07-01T01:00:24;12.60;96.40
24902;DHT22;31328;51.402;0.016;2022-07-01T01:02:53;12.60;96.40
24902;DHT22;31328;51.402;0.016;2022-07-01T01:05:20;12.60;96.50
24902;DHT22;31328;51.402;0.016;2022-07-01T01:07:48;12.60;96.50
24902;DHT22;31328;51.402;0.016;2022-07-01T01:10:17;12.60;96.50
24902;DHT22;31328;51.402;0.016;2022-07-01T01:12:44;12.70;96.50
24902;DHT22;31328;51.402;0.016;2022-07-01T01:15:20;12.70;96.50
24902;DHT22;31328;51.402;0.016;2022-07-01T01:17:47;12.70;96.40
24902;DHT22;31328;51.402;0.016;2022-07-01T01:20:24;12.70;96.50
24902;DHT22;31328;51.402;0.016;2022-07-01T01:22:50;12.70;96.50
24902;DHT22;31328;51.402;0.016;2022-07-01T01:25:17;12.70;96.50
24902;DHT22;31328;51.402;0.016;2022-07-01T01:27:44;12.70;96.50
24902;DHT22;31328;51.402;0.016;2022-07-01T01:30:12;12.70;96.50
24902;DHT22;31328;51.402;0.016;2022-07-01T01:32:39;12.70;96.60
24902;DHT22;31328;51.402;0.016;2022-07-01T01:35:08;12.70;96.60
24902;DHT22;31328;51.402;0.016;2022-07-01T01:37:35;12.70;96.60
24902;DHT22;31328;51.402;0.016;2022-07-01T01:40:02;12.70;96.70
24902;DHT22;31328;51.402;0.016;2022-07-01T01:42:29;12.60;96.60
24902;DHT22;31328;51.402;0.016;2022-07-01T01:44:57;12.60;96.70
24902;DHT22;31328;51.402;0.016;2022-07-01T01:47:23;12.60;96.80
24902;DHT22;31328;51.402;0.016;2022-07-01T01:49:50;12.60;96.80
24902;DHT22;31328;51.402;0.016;2022-07-01T01:52:16;12.60;96.90
24902;DHT22;31328;51.402;0.016;2022-07-01T01:54:42;12.60;96.90
24902;DHT22;31328;51.402;0.016;2022-07-01T01:57:09;12.60;97.00
24902;DHT22;31328;51.402;0.016;2022-07-01T01:59:35;12.60;97.00
24902;DHT22;31328;51.402;0.016;2022-07-01T02:02:02;12.70;97.10
24902;DHT22;31328;51.402;0.016;2022-07-01T02:04:28;12.70;97.10
24902;DHT22;31328;51.402;0.016;2022-07-01T02:06:55;12.70;97.10
24902;DHT22;31328;51.402;0.016;2022-07-01T02:09:21;12.70;97.10
24902;DHT22;31328;51.402;0.016;2022-07-01T02:11:48;12.70;97.10
24902;DHT22;31328;51.402;0.016;2022-07-01T02:14:14;12.70;97.20
24902;DHT22;31328;51.402;0.016;2022-07-01T02:16:40;12.60;97.10
24902;DHT22;31328;51.402;0.016;2022-07-01T02:19:07;12.60;97.20
24902;DHT22;31328;51.402;0.016;2022-07-01T02:21:33;12.60;97.20
24902;DHT22;31328;51.402;0.016;2022-07-01T02:24:00;12.60;97.20
24902;DHT22;31328;51.402;0.016;2022-07-01T02:26:26;12.60;97.30
24902;DHT22;31328;51.402;0.016;2022-07-01T02:28:52;12.60;97.30
24902;DHT22;31328;51.402;0.016;2022-07-01T02:31:18;12.60;97.30
24902;DHT22;31328;51.402;0.016;2022-07-01T02:33:45;12.50;97.30
24902;DHT22;31328;51.402;0.016;2022-07-01T02:36:11;12.60;97.40
24902;DHT22;31328;51.402;0.016;2022-07-01T02:38:37;12.60;97.40
24902;DHT22;31328;51.402;0.016;2022-07-01T02:41:04;12.60;97.40
24902;DHT22;31328;51.402;0.016;2022-07-01T02:43:30;12.60;97.50
24902;DHT22;31328;51.402;0.016;2022-07-01T02:45:57;12.60;97.50
24902;DHT22;31328;51.402;0.016;2022-07-01T02:48:24;12.60;97.50
24902;DHT22;31328;51.402;0.016;2022-07-01T02:50:50;12.50;97.50
24902;DHT22;31328;51.402;0.016;2022-07-01T02:53:17;12.60;97.50
24902;DHT22;31328;51.402;0.016;2022-07-01T02:55:43;12.50;97.60
24902;DHT22;31328;51.402;0.016;2022-07-01T02:58:09;12.50;97.60
24902;DHT22;31328;51.402;0.016;2022-07-01T03:00:35;12.50;97.60
24902;DHT22;31328;51.402;0.016;2022-07-01T03:03:03;12.50;97.70
24902;DHT22;31328;51.402;0.016;2022-07-01T03:05:29;12.50;97.70
24902;DHT22;31328;51.402;0.016;2022-07-01T03:07:55;12.50;97.70
24902;DHT22;31328;51.402;0.016;2022-07-01T03:10:22;12.60;97.80
24902;DHT22;31328;51.402;0.016;2022-07-01T03:12:48;12.60;97.80
24902;DHT22;31328;51.402;0.016;2022-07-01T03:15:15;12.60;97.90
24902;DHT22;31328;51.402;0.016;2022-07-01T03:17:43;12.60;97.80
24902;DHT22;31328;51.402;0.016;2022-07-01T03:20:13;12.60;97.90
24902;DHT22;31328;51.402;0.016;2022-07-01T03:22:40;12.60;97.90
24902;DHT22;31328;51.402;0.016;2022-07-01T03:25:07;12.70;98.20
24902;DHT22;31328;51.402;0.016;2022-07-01T03:27:34;12.70;98.00
24902;DHT22;31328;51.402;0.016;2022-07-01T03:30:02;12.70;98.00
24902;DHT22;31328;51.402;0.016;2022-07-01T03:32:29;12.70;98.00
24902;DHT22;31328;51.402;0.016;2022-07-01T03:34:55;12.70;98.00
24902;DHT22;31328;51.402;0.016;2022-07-01T03:37:22;12.70;98.00
24902;DHT22;31328;51.402;0.016;2022-07-01T03:39:50;12.70;98.00
24902;DHT22;31328;51.402;0.016;2022-07-01T03:42:16;12.70;98.00
24902;DHT22;31328;51.402;0.016;2022-07-01T03:44:44;12.70;98.00
24902;DHT22;31328;51.402;0.016;2022-07-01T03:47:10;12.70;98.00
24902;DHT22;31328;51.402;0.016;2022-07-01T03:49:36;12.70;98.00
24902;DHT22;31328;51.402;0.016;2022-07-01T03:52:04;12.60;98.00
24902;DHT22;31328;51.402;0.016;2022-07-01T03:54:31;12.60;98.00
24902;DHT22;31328;51.402;0.016;2022-07-01T03:57:08;12.60;98.00
24902;DHT22;31328;51.402;0.016;2022-07-01T03:59:37;12.60;98.00
24902;DHT22;31328;51.402;0.016;2022-07-01T04:02:05;12.60;98.00
24902;DHT22;31328;51.402;0.016;2022-07-01T04:04:31;12.60;98.10
24902;DHT22;31328;51.402;0.016;2022-07-01T04:07:00;12.60;98.20
24902;DHT22;31328;51.402;0.016;2022-07-01T04:09:28;12.60;98.20
24902;DHT22;31328;51.402;0.016;2022-07-01T04:11:55;12.60;98.20
24902;DHT22;31328;51.402;0.016;2022-07-01T04:14:22;12.60;98.20
24902;DHT22;31328;51.402;0.016;2022-07-01T04:16:50;12.70;98.20
24902;DHT22;31328;51.402;0.016;2022-07-01T04:19:18;12.70;98.20
24902;DHT22;31328;51.402;0.016;2022-07-01T04:21:44;12.70;98.50
24902;DHT22;31328;51.402;0.016;2022-07-01T04:24:29;12.80;98.20
24902;DHT22;31328;51.402;0.016;2022-07-01T04:26:59;12.80;98.30
24902;DHT22;31328;51.402;0.016;2022-07-01T04:29:26;12.80;98.10
24902;DHT22;31328;51.402;0.016;2022-07-01T04:31:55;12.80;98.10
24902;DHT22;31328;51.402;0.016;2022-07-01T04:34:22;12.90;98.00
24902;DHT22;31328;51.402;0.016;2022-07-01T04:36:49;12.90;98.10
24902;DHT22;31328;51.402;0.016;2022-07-01T04:39:15;12.90;98.10
24902;DHT22;31328;51.402;0.016;2022-07-01T04:41:42;12.90;98.00
24902;DHT22;31328;51.402;0.016;2022-07-01T04:46:53;13.00;98.10
24902;DHT22;31328;51.402;0.016;2022-07-01T04:49:19;13.10;98.10
24902;DHT22;31328;51.402;0.016;2022-07-01T04:51:46;13.10;98.10
24902;DHT22;31328;51.402;0.016;2022-07-01T04:54:12;13.20;98.10
24902;DHT22;31328;51.402;0.016;2022-07-01T04:56:39;13.20;98.10
24902;DHT22;31328;51.402;0.016;2022-07-01T04:59:05;13.20;98.10
24902;DHT22;31328;51.402;0.016;2022-07-01T05:01:32;13.30;98.20
24902;DHT22;31328;51.402;0.016;2022-07-01T05:03:58;13.30;98.20
24902;DHT22;31328;51.402;0.016;2022-07-01T05:06:25;13.40;98.20
24902;DHT22;31328;51.402;0.016;2022-07-01T05:08:51;13.40;98.10
24902;DHT22;31328;51.402;0.016;2022-07-01T05:11:18;13.50;98.10
24902;DHT22;31328;51.402;0.016;2022-07-01T05:13:44;13.50;98.10
24902;DHT22;31328;51.402;0.016;2022-07-01T05:16:10;13.60;98.10
24902;DHT22;31328;51.402;0.016;2022-07-01T05:18:37;13.60;98.30
24902;DHT22;31328;51.402;0.016;2022-07-01T05:21:23;13.70;98.00
24902;DHT22;31328;51.402;0.016;2022-07-01T05:24:08;13.80;97.90
24902;DHT22;31328;51.402;0.016;2022-07-01T05:26:35;13.90;97.90
24902;DHT22;31328;51.402;0.016;2022-07-01T05:29:01;13.90;97.80
24902;DHT22;31328;51.402;0.016;2022-07-01T05:31:28;14.00;97.80
24902;DHT22;31328;51.402;0.016;2022-07-01T05:33:54;14.00;97.70
24902;DHT22;31328;51.402;0.016;2022-07-01T05:36:20;14.10;97.70
24902;DHT22;31328;51.402;0.016;2022-07-01T05:38:47;14.10;97.70
24902;DHT22;31328;51.402;0.016;2022-07-01T05:41:13;14.20;97.70
24902;DHT22;31328;51.402;0.016;2022-07-01T05:43:40;14.20;97.60
24902;DHT22;31328;51.402;0.016;2022-07-01T05:46:06;14.30;97.60
24902;DHT22;31328;51.402;0.016;2022-07-01T05:48:32;14.30;97.50
24902;DHT22;31328;51.402;0.016;2022-07-01T05:50:59;14.30;97.40
24902;DHT22;31328;51.402;0.016;2022-07-01T05:53:25;14.40;97.30
24902;DHT22;31328;51.402;0.016;2022-07-01T05:55:52;14.40;97.30
24902;DHT22;31328;51.402;0.016;2022-07-01T05:58:18;14.50;97.30
24902;DHT22;31328;51.402;0.016;2022-07-01T06:00:44;14.50;97.30
24902;DHT22;31328;51.402;0.016;2022-07-01T06:03:13;14.60;97.20
24902;DHT22;31328;51.402;0.016;2022-07-01T06:05:40;14.60;97.20
24902;DHT22;31328;51.402;0.016;2022-07-01T06:08:07;14.60;97.20
24902;DHT22;31328;51.402;0.016;2022-07-01T06:10:35;14.60;97.10
24902;DHT22;31328;51.402;0.016;2022-07-01T06:13:02;14.50;97.10
24902;DHT22;31328;51.402;0.016;2022-07-01T06:15:29;14.50;97.10
24902;DHT22;31328;51.402;0.016;2022-07-01T06:17:55;14.50;97.10
24902;DHT22;31328;51.402;0.016;2022-07-01T06:20:22;14.40;97.20
24902;DHT22;31328;51.402;0.016;2022-07-01T06:22:48;14.50;97.20
24902;DHT22;31328;51.402;0.016;2022-07-01T06:25:15;14.50;97.20
24902;DHT22;31328;51.402;0.016;2022-07-01T06:27:43;14.60;97.20
24902;DHT22;31328;51.402;0.016;2022-07-01T06:30:10;14.70;97.10
24902;DHT22;31328;51.402;0.016;2022-07-01T06:32:37;14.80;97.00
24902;DHT22;31328;51.402;0.016;2022-07-01T06:35:04;14.80;96.90
24902;DHT22;31328;51.402;0.016;2022-07-01T06:37:31;14.80;96.80
24902;DHT22;31328;51.402;0.016;2022-07-01T06:40:00;14.80;96.80
24902;DHT22;31328;51.402;0.016;2022-07-01T06:42:27;14.80;96.80
24902;DHT22;31328;51.402;0.016;2022-07-01T06:44:53;14.80;96.90
24902;DHT22;31328;51.402;0.016;2022-07-01T06:47:19;14.80;97.00
24902;DHT22;31328;51.402;0.016;2022-07-01T06:49:46;14.80;96.90
24902;DHT22;31328;51.402;0.016;2022-07-01T06:52:12;14.90;97.00
24902;DHT22;31328;51.402;0.016;2022-07-01T06:54:39;14.90;97.00
24902;DHT22;31328;51.402;0.016;2022-07-01T06:57:06;14.90;97.00
24902;DHT22;31328;51.402;0.016;2022-07-01T06:59:33;14.90;97.00
24902;DHT22;31328;51.402;0.016;2022-07-01T07:02:00;15.00;96.90
24902;DHT22;31328;51.402;0.016;2022-07-01T07:04:26;15.00;96.90
24902;DHT22;31328;51.402;0.016;2022-07-01T07:06:53;15.10;96.90
24902;DHT22;31328;51.402;0.016;2022-07-01T07:09:20;15.10;96.90
24902;DHT22;31328;51.402;0.016;2022-07-01T07:11:46;15.10;96.80
24902;DHT22;31328;51.402;0.016;2022-07-01T07:14:13;15.20;96.70
24902;DHT22;31328;51.402;0.016;2022-07-01T07:16:39;15.30;96.80
24902;DHT22;31328;51.402;0.016;2022-07-01T07:19:05;15.30;96.70
24902;DHT22;31328;51.402;0.016;2022-07-01T07:21:32;15.30;96.60
24902;DHT22;31328;51.402;0.016;2022-07-01T07:23:58;15.40;96.60
24902;DHT22;31328;51.402;0.016;2022-07-01T07:26:24;15.40;96.60
24902;DHT22;31328;51.402;0.016;2022-07-01T07:28:51;15.40;96.50
24902;DHT22;31328;51.402;0.016;2022-07-01T07:31:17;15.50;96.40
24902;DHT22;31328;51.402;0.016;2022-07-01T07:33:43;15.50;96.40
24902;DHT22;31328;51.402;0.016;2022-07-01T07:36:10;15.60;96.30
24902;DHT22;31328;51.402;0.016;2022-07-01T07:38:37;15.60;96.20
24902;DHT22;31328;51.402;0.016;2022-07-01T07:41:04;15.80;96.20
24902;DHT22;31328;51.402;0.016;2022-07-01T07:43:31;15.80;96.00
24902;DHT22;31328;51.402;0.016;2022-07-01T07:45:57;15.90;95.90
24902;DHT22;31328;51.402;0.016;2022-07-01T07:48:23;16.00;95.80
24902;DHT22;31328;51.402;0.016;2022-07-01T07:50:50;16.10;95.70
24902;DHT22;31328;51.402;0.016;2022-07-01T07:53:16;16.20;95.60
24902;DHT22;31328;51.402;0.016;2022-07-01T07:55:42;16.30;95.50
24902;DHT22;31328;51.402;0.016;2022-07-01T07:58:09;16.40;95.40
24902;DHT22;31328;51.402;0.016;2022-07-01T08:00:35;16.50;95.20
24902;DHT22;31328;51.402;0.016;2022-07-01T08:03:01;16.60;95.10
24902;DHT22;31328;51.402;0.016;2022-07-01T08:05:28;16.60;94.90
24902;DHT22;31328;51.402;0.016;2022-07-01T08:07:54;16.70;94.80
24902;DHT22;31328;51.402;0.016;2022-07-01T08:10:21;16.70;94.60
24902;DHT22;31328;51.402;0.016;2022-07-01T08:12:47;16.60;94.50
24902;DHT22;31328;51.402;0.016;2022-07-01T08:15:14;16.60;94.40
24902;DHT22;31328;51.402;0.016;2022-07-01T08:17:41;16.60;94.40
24902;DHT22;31328;51.402;0.016;2022-07-01T08:20:08;16.70;94.20
24902;DHT22;31328;51.402;0.016;2022-07-01T08:22:34;16.70;94.10
24902;DHT22;31328;51.402;0.016;2022-07-01T08:25:00;16.80;93.90
24902;DHT22;31328;51.402;0.016;2022-07-01T08:27:28;16.90;93.70
24902;DHT22;31328;51.402;0.016;2022-07-01T08:29:55;17.10;93.60
24902;DHT22;31328;51.402;0.016;2022-07-01T08:32:21;17.20;93.20
24902;DHT22;31328;51.402;0.016;2022-07-01T08:34:50;17.40;92.90
24902;DHT22;31328;51.402;0.016;2022-07-01T08:37:17;17.50;92.80
24902;DHT22;31328;51.402;0.016;2022-07-01T08:39:43;17.60;92.70
24902;DHT22;31328;51.402;0.016;2022-07-01T08:42:09;17.70;92.50
24902;DHT22;31328;51.402;0.016;2022-07-01T08:44:35;17.80;92.50
24902;DHT22;31328;51.402;0.016;2022-07-01T08:47:02;17.90;92.40
24902;DHT22;31328;51.402;0.016;2022-07-01T08:49:30;18.00;92.20
24902;DHT22;31328;51.402;0.016;2022-07-01T08:51:57;18.10;92.10
24902;DHT22;31328;51.402;0.016;2022-07-01T08:54:23;18.30;91.90
24902;DHT22;31328;51.402;0.016;2022-07-01T08:56:49;18.40;91.70
24902;DHT22;31328;51.402;0.016;2022-07-01T08:59:24;18.60;91.30
24902;DHT22;31328;51.402;0.016;2022-07-01T09:01:55;18.80;91.10
24902;DHT22;31328;51.402;0.016;2022-07-01T09:04:23;18.90;90.90
24902;DHT22;31328;51.402;0.016;2022-07-01T09:06:49;18.90;90.70
24902;DHT22;31328;51.402;0.016;2022-07-01T09:09:18;19.00;90.50
24902;DHT22;31328;51.402;0.016;2022-07-01T09:11:48;19.00;90.20
24902;DHT22;31328;51.402;0.016;2022-07-01T09:14:21;19.10;90.10
24902;DHT22;31328;51.402;0.016;2022-07-01T09:16:53;19.30;89.40
24902;DHT22;31328;51.402;0.016;2022-07-01T09:19:22;19.50;88.80
24902;DHT22;31328;51.402;0.016;2022-07-01T09:21:54;19.80;87.80
24902;DHT22;31328;51.402;0.016;2022-07-01T09:24:35;20.00;87.30
24902;DHT22;31328;51.402;0.016;2022-07-01T09:29:43;20.60;86.10
24902;DHT22;31328;51.402;0.016;2022-07-01T09:32:12;20.80;84.30
24902;DHT22;31328;51.402;0.016;2022-07-01T09:37:06;20.90;83.20
24902;DHT22;31328;51.402;0.016;2022-07-01T09:39:47;20.80;83.10
24902;DHT22;31328;51.402;0.016;2022-07-01T09:42:15;20.70;82.20
24902;DHT22;31328;51.402;0.016;2022-07-01T09:47:26;20.60;82.60
24902;DHT22;31328;51.402;0.016;2022-07-01T09:49:54;20.60;83.00
24902;DHT22;31328;51.402;0.016;2022-07-01T09:52:21;20.40;82.90
24902;DHT22;31328;51.402;0.016;2022-07-01T09:54:49;20.30;83.50
24902;DHT22;31328;51.402;0.016;2022-07-01T09:57:17;20.20;82.70
24902;DHT22;31328;51.402;0.016;2022-07-01T09:59:44;20.20;83.50
24902;DHT22;31328;51.402;0.016;2022-07-01T10:02:11;20.20;82.70
24902;DHT22;31328;51.402;0.016;2022-07-01T10:12:54;20.60;80.40
24902;DHT22;31328;51.402;0.016;2022-07-01T10:15:21;20.50;80.90
24902;DHT22;31328;51.402;0.016;2022-07-01T10:17:50;20.40;81.20
24902;DHT22;31328;51.402;0.016;2022-07-01T10:20:19;20.40;81.00
24902;DHT22;31328;51.402;0.016;2022-07-01T10:22:46;20.40;81.10
24902;DHT22;31328;51.402;0.016;2022-07-01T10:28:21;20.80;80.80
24902;DHT22;31328;51.402;0.016;2022-07-01T10:31:05;21.00;79.80
24902;DHT22;31328;51.402;0.016;2022-07-01T10:36:10;21.30;80.10
24902;DHT22;31328;51.402;0.016;2022-07-01T10:44:20;21.80;78.00
24902;DHT22;31328;51.402;0.016;2022-07-01T10:46:48;21.90;77.80
24902;DHT22;31328;51.402;0.016;2022-07-01T10:49:18;21.90;77.00
24902;DHT22;31328;51.402;0.016;2022-07-01T10:51:52;21.90;76.30
24902;DHT22;31328;51.402;0.016;2022-07-01T10:59:47;22.10;74.60
24902;DHT22;31328;51.402;0.016;2022-07-01T11:04:49;22.20;74.80
24902;DHT22;31328;51.402;0.016;2022-07-01T11:07:16;22.30;72.80
24902;DHT22;31328;51.402;0.016;2022-07-01T11:09:42;22.30;74.00
24902;DHT22;31328;51.402;0.016;2022-07-01T11:12:09;22.10;74.20
24902;DHT22;31328;51.402;0.016;2022-07-01T11:14:40;22.00;73.90
24902;DHT22;31328;51.402;0.016;2022-07-01T11:17:07;21.90;73.80
24902;DHT22;31328;51.402;0.016;2022-07-01T11:19:34;21.80;74.40
24902;DHT22;31328;51.402;0.016;2022-07-01T11:22:02;21.80;74.30
24902;DHT22;31328;51.402;0.016;2022-07-01T11:24:29;21.90;74.20
24902;DHT22;31328;51.402;0.016;2022-07-01T11:27:08;22.00;73.90
24902;DHT22;31328;51.402;0.016;2022-07-01T11:29:34;22.00;73.60
24902;DHT22;31328;51.402;0.016;2022-07-01T11:32:01;22.00;72.90
24902;DHT22;31328;51.402;0.016;2022-07-01T11:34:29;22.00;71.80
24902;DHT22;31328;51.402;0.016;2022-07-01T11:36:56;21.90;72.10
24902;DHT22;31328;51.402;0.016;2022-07-01T11:39:49;21.80;71.90
24902;DHT22;31328;51.402;0.016;2022-07-01T11:42:15;21.80;71.70
24902;DHT22;31328;51.402;0.016;2022-07-01T11:44:43;21.80;71.50
24902;DHT22;31328;51.402;0.016;2022-07-01T11:47:12;21.80;71.20
24902;DHT22;31328;51.402;0.016;2022-07-01T11:49:48;22.00;71.30
24902;DHT22;31328;51.402;0.016;2022-07-01T11:52:16;22.20;71.00
24902;DHT22;31328;51.402;0.016;2022-07-01T11:54:51;22.20;70.00
24902;DHT22;31328;51.402;0.016;2022-07-01T11:57:22;22.20;69.90
24902;DHT22;31328;51.402;0.016;2022-07-01T11:59:53;22.30;69.40
24902;DHT22;31328;51.402;0.016;2022-07-01T12:02:22;22.30;69.40
24902;DHT22;31328;51.402;0.016;2022-07-01T12:04:50;22.30;69.10
24902;DHT22;31328;51.402;0.016;2022-07-01T12:07:20;22.40;69.40
24902;DHT22;31328;51.402;0.016;2022-07-01T12:09:50;22.50;68.30
24902;DHT22;31328;51.402;0.016;2022-07-01T12:12:22;22.50;68.00
24902;DHT22;31328;51.402;0.016;2022-07-01T12:14:53;22.50;67.40
24902;DHT22;31328;51.402;0.016;2022-07-01T12:17:21;22.30;67.50
24902;DHT22;31328;51.402;0.016;2022-07-01T12:19:49;22.30;68.90
24902;DHT22;31328;51.402;0.016;2022-07-01T12:22:18;22.20;68.10
24902;DHT22;31328;51.402;0.016;2022-07-01T12:24:46;22.20;67.60
24902;DHT22;31328;51.402;0.016;2022-07-01T12:27:14;22.10;67.10
24902;DHT22;31328;51.402;0.016;2022-07-01T12:32:22;21.90;67.30
24902;DHT22;31328;51.402;0.016;2022-07-01T12:35:00;21.80;67.60
24902;DHT22;31328;51.402;0.016;2022-07-01T12:44:51;21.30;68.50
24902;DHT22;31328;51.402;0.016;2022-07-01T12:47:38;21.30;69.10
24902;DHT22;31328;51.402;0.016;2022-07-01T12:50:29;21.10;69.00
24902;DHT22;31328;51.402;0.016;2022-07-01T12:53:09;21.00;68.90
24902;DHT22;31328;51.402;0.016;2022-07-01T12:55:38;20.90;69.40
24902;DHT22;31328;51.402;0.016;2022-07-01T12:58:07;20.90;69.60
24902;DHT22;31328;51.402;0.016;2022-07-01T13:00:35;20.90;69.50
24902;DHT22;31328;51.402;0.016;2022-07-01T13:03:04;20.90;69.50
24902;DHT22;31328;51.402;0.016;2022-07-01T13:05:33;20.90;69.30
24902;DHT22;31328;51.402;0.016;2022-07-01T13:07:59;21.00;69.50
24902;DHT22;31328;51.402;0.016;2022-07-01T13:10:26;21.10;69.50
24902;DHT22;31328;51.402;0.016;2022-07-01T13:12:53;21.20;69.50
24902;DHT22;31328;51.402;0.016;2022-07-01T13:15:19;21.50;69.60
24902;DHT22;31328;51.402;0.016;2022-07-01T13:17:47;21.60;68.90
24902;DHT22;31328;51.402;0.016;2022-07-01T13:20:14;21.60;68.40
24902;DHT22;31328;51.402;0.016;2022-07-01T13:22:41;21.60;67.90
24902;DHT22;31328;51.402;0.016;2022-07-01T13:25:08;21.60;67.80
24902;DHT22;31328;51.402;0.016;2022-07-01T13:27:36;21.60;68.30
24902;DHT22;31328;51.402;0.016;2022-07-01T13:30:07;21.50;68.30
24902;DHT22;31328;51.402;0.016;2022-07-01T13:32:35;21.50;68.50
24902;DHT22;31328;51.402;0.016;2022-07-01T13:35:02;21.50;68.20
24902;DHT22;31328;51.402;0.016;2022-07-01T13:37:29;21.50;67.90
24902;DHT22;31328;51.402;0.016;2022-07-01T13:39:55;21.50;68.20
24902;DHT22;31328;51.402;0.016;2022-07-01T13:42:22;21.50;68.30
24902;DHT22;31328;51.402;0.016;2022-07-01T13:44:48;21.50;68.40
24902;DHT22;31328;51.402;0.016;2022-07-01T13:47:16;21.50;68.30
24902;DHT22;31328;51.402;0.016;2022-07-01T13:49:43;21.50;68.10
24902;DHT22;31328;51.402;0.016;2022-07-01T13:52:10;21.50;68.10
24902;DHT22;31328;51.402;0.016;2022-07-01T13:54:37;21.50;68.10
24902;DHT22;31328;51.402;0.016;2022-07-01T13:57:04;21.50;67.70
24902;DHT22;31328;51.402;0.016;2022-07-01T13:59:30;21.40;67.60
24902;DHT22;31328;51.402;0.016;2022-07-01T14:01:58;21.20;67.50
24902;DHT22;31328;51.402;0.016;2022-07-01T14:04:24;21.10;67.40
24902;DHT22;31328;51.402;0.016;2022-07-01T14:06:51;21.00;67.80
24902;DHT22;31328;51.402;0.016;2022-07-01T14:09:17;20.90;68.10
24902;DHT22;31328;51.402;0.016;2022-07-01T14:11:43;20.80;67.60
24902;DHT22;31328;51.402;0.016;2022-07-01T14:14:11;20.80;67.70
24902;DHT22;31328;51.402;0.016;2022-07-01T14:16:37;20.70;67.60
24902;DHT22;31328;51.402;0.016;2022-07-01T14:19:04;20.60;68.20
24902;DHT22;31328;51.402;0.016;2022-07-01T14:21:30;20.60;68.40
24902;DHT22;31328;51.402;0.016;2022-07-01T14:23:57;20.50;68.30
24902;DHT22;31328;51.402;0.016;2022-07-01T14:26:23;20.50;68.00
24902;DHT22;31328;51.402;0.016;2022-07-01T14:28:50;20.50;68.30
24902;DHT22;31328;51.402;0.016;2022-07-01T14:31:16;20.50;68.60
24902;DHT22;31328;51.402;0.016;2022-07-01T14:33:42;20.50;68.50
24902;DHT22;31328;51.402;0.016;2022-07-01T14:36:09;20.70;68.30
24902;DHT22;31328;51.402;0.016;2022-07-01T14:38:35;20.90;68.50
24902;DHT22;31328;51.402;0.016;2022-07-01T14:41:01;21.10;67.70
24902;DHT22;31328;51.402;0.016;2022-07-01T14:43:28;21.20;67.60
24902;DHT22;31328;51.402;0.016;2022-07-01T14:45:55;21.30;67.40
24902;DHT22;31328;51.402;0.016;2022-07-01T14:48:22;21.30;67.20
24902;DHT22;31328;51.402;0.016;2022-07-01T14:50:48;21.30;66.70
24902;DHT22;31328;51.402;0.016;2022-07-01T14:53:14;21.40;66.50
24902;DHT22;31328;51.402;0.016;2022-07-01T14:55:41;21.50;66.40
24902;DHT22;31328;51.402;0.016;2022-07-01T14:58:07;21.70;66.70
24902;DHT22;31328;51.402;0.016;2022-07-01T15:00:34;21.90;65.80
24902;DHT22;31328;51.402;0.016;2022-07-01T15:03:05;22.00;65.40
24902;DHT22;31328;51.402;0.016;2022-07-01T15:05:35;22.00;65.00
24902;DHT22;31328;51.402;0.016;2022-07-01T15:08:01;22.00;64.20
24902;DHT22;31328;51.402;0.016;2022-07-01T15:10:27;21.80;64.20
24902;DHT22;31328;51.402;0.016;2022-07-01T15:12:54;21.70;64.80
24902;DHT22;31328;51.402;0.016;2022-07-01T15:15:20;21.70;65.00
24902;DHT22;31328;51.402;0.016;2022-07-01T15:17:47;21.70;64.60
24902;DHT22;31328;51.402;0.016;2022-07-01T15:20:15;21.80;64.40
24902;DHT22;31328;51.402;0.016;2022-07-01T15:22:42;21.80;64.30
24902;DHT22;31328;51.402;0.016;2022-07-01T15:25:09;21.90;64.20
24902;DHT22;31328;51.402;0.016;2022-07-01T15:27:36;21.90;63.80
24902;DHT22;31328;51.402;0.016;2022-07-01T15:30:03;21.90;63.80
24902;DHT22;31328;51.402;0.016;2022-07-01T15:32:32;21.70;63.40
24902;DHT22;31328;51.402;0.016;2022-07-01T15:34:59;21.60;63.50
24902;DHT22;31328;51.402;0.016;2022-07-01T15:37:26;21.50;63.80
24902;DHT22;31328;51.402;0.016;2022-07-01T15:39:52;21.40;64.20
24902;DHT22;31328;51.402;0.016;2022-07-01T15:42:19;21.40;64.30
24902;DHT22;31328;51.402;0.016;2022-07-01T15:44:47;21.40;64.50
24902;DHT22;31328;51.402;0.016;2022-07-01T15:47:13;21.40;64.50
24902;DHT22;31328;51.402;0.016;2022-07-01T15:49:58;21.30;64.30
24902;DHT22;31328;51.402;0.016;2022-07-01T15:52:24;21.20;64.30
24902;DHT22;31328;51.402;0.016;2022-07-01T15:54:51;21.20;65.30
24902;DHT22;31328;51.402;0.016;2022-07-01T15:57:17;21.30;65.20
24902;DHT22;31328;51.402;0.016;2022-07-01T15:59:43;21.30;64.70
24902;DHT22;31328;51.402;0.016;2022-07-01T16:02:11;21.40;64.50
24902;DHT22;31328;51.402;0.016;2022-07-01T16:04:38;21.40;64.70
24902;DHT22;31328;51.402;0.016;2022-07-01T16:07:05;21.40;64.80
24902;DHT22;31328;51.402;0.016;2022-07-01T16:09:36;21.40;64.90
24902;DHT22;31328;51.402;0.016;2022-07-01T16:12:05;21.50;64.60
24902;DHT22;31328;51.402;0.016;2022-07-01T16:14:33;21.50;64.00
24902;DHT22;31328;51.402;0.016;2022-07-01T16:17:01;21.50;63.60
24902;DHT22;31328;51.402;0.016;2022-07-01T16:19:30;21.50;63.60
24902;DHT22;31328;51.402;0.016;2022-07-01T16:22:03;21.50;63.60